Time;durP1;ratioP1;P1;durP2;ratioP2;P2;SDS_P1;SDS_P2;PMS_P1;PMS_P2;Temp;Humidity;BMP_temperature;BMP_pressure;BME280_temperature;BME280_humidity;BME280_pressure;Samples;Min_cycle;Max_cycle;Signal;HPM_P1;HPM_P2
2023/01/03 00:01:09;;;;;;;18.42;5.22;;;4.80;98.20;;;;;;5028002;28;20025;-67
2023/01/03 00:03:34;;;;;;;11.27;5.05;;;4.80;98.30;;;;;;5029019;28;20041;-67
2023/01/03 00:06:00;;;;;;;17.02;5.60;;;4.80;98.50;;;;;;5026360;28;20032;-68
2023/01/03 00:08:26;;;;;;;13.73;5.60;;;4.90;98.60;;;;;;5031560;28;20096;-67
2023/01/03 00:10:51;;;;;;;15.32;6.07;;;5.00;98.50;;;;;;5021269;28;20066;-66
2023/01/03 00:13:17;;;;;;;16.88;6.03;;;5.00;98.40;;;;;;5031131;28;20516;-66
2023/01/03 00:15:42;;;;;;;13.75;5.32;;;5.00;98.50;;;;;;5029237;28;20053;-67
2023/01/03 00:18:08;;;;;;;18.02;6.47;;;5.10;98.50;;;;;;5029857;28;20104;-68
2023/01/03 00:20:33;;;;;;;13.88;6.00;;;5.10;98.40;;;;;;5030098;28;20041;-67
2023/01/03 00:23:00;;;;;;;16.95;6.93;;;5.10;98.50;;;;;;5028952;28;20050;-67
2023/01/03 00:25:26;;;;;;;13.25;6.90;;;5.10;98.50;;;;;;5032256;28;20029;-67
2023/01/03 00:27:52;;;;;;;15.55;6.30;;;5.20;98.40;;;;;;5030479;28;20488;-67
2023/01/03 00:30:17;;;;;;;13.43;5.53;;;5.20;98.30;;;;;;5029403;28;20041;-67
2023/01/03 00:32:43;;;;;;;10.10;5.63;;;5.20;98.20;;;;;;5024203;28;20092;-68
2023/01/03 00:35:09;;;;;;;14.30;6.00;;;5.20;98.10;;;;;;5029431;28;20033;-67
2023/01/03 00:37:34;;;;;;;16.70;6.10;;;5.20;98.00;;;;;;5030593;28;20410;-67
2023/01/03 00:40:00;;;;;;;19.08;6.85;;;5.10;98.00;;;;;;5032172;28;20034;-67
2023/01/03 00:42:25;;;;;;;15.48;5.80;;;5.10;98.00;;;;;;5030379;28;20412;-67
2023/01/03 00:44:50;;;;;;;15.45;5.40;;;5.10;98.00;;;;;;5030806;28;20033;-67
2023/01/03 00:47:16;;;;;;;17.55;5.53;;;5.00;98.00;;;;;;5022501;28;20030;-67
2023/01/03 00:49:41;;;;;;;11.57;5.60;;;5.00;98.00;;;;;;5029666;28;20061;-67
2023/01/03 00:52:07;;;;;;;16.10;5.50;;;5.00;98.00;;;;;;5020444;28;20044;-67
2023/01/03 00:54:32;;;;;;;14.25;5.40;;;5.00;97.90;;;;;;5027371;28;20041;-67
2023/01/03 00:56:58;;;;;;;9.85;5.22;;;4.90;97.90;;;;;;5030964;28;20104;-67
2023/01/03 00:59:24;;;;;;;12.70;5.18;;;4.80;98.00;;;;;;5026951;28;20033;-67
2023/01/03 01:01:53;;;;;;;15.15;5.70;;;4.80;98.10;;;;;;5025599;28;20685;-67
2023/01/03 01:04:27;;;;;;;14.88;5.97;;;4.80;98.30;;;;;;5029368;28;20029;-68
2023/01/03 01:06:55;;;;;;;12.20;5.32;;;4.80;98.20;;;;;;5025961;28;20473;-67
2023/01/03 01:09:26;;;;;;;14.80;5.10;;;4.70;98.20;;;;;;5027578;28;20025;-69
2023/01/03 01:11:53;;;;;;;19.50;6.28;;;4.70;98.30;;;;;;5025609;28;20029;-67
2023/01/03 01:14:20;;;;;;;14.38;5.50;;;4.80;98.30;;;;;;5023593;28;20048;-67
2023/01/03 01:17:03;;;;;;;14.85;5.68;;;4.80;98.20;;;;;;5023327;28;20027;-68
2023/01/03 01:19:34;;;;;;;12.93;5.53;;;4.80;98.20;;;;;;5025480;28;20135;-67
2023/01/03 01:21:59;;;;;;;10.40;5.53;;;4.80;98.20;;;;;;5025273;28;20058;-67
2023/01/03 01:24:25;;;;;;;13.27;5.43;;;4.70;98.10;;;;;;5025803;28;20087;-68
2023/01/03 01:26:51;;;;;;;11.32;5.10;;;4.70;98.10;;;;;;5030396;28;20063;-68
2023/01/03 01:29:17;;;;;;;11.20;4.97;;;4.60;98.00;;;;;;5029833;28;20033;-67
2023/01/03 01:31:44;;;;;;;15.65;5.57;;;4.70;97.90;;;;;;5028448;28;20060;-67
2023/01/03 01:34:11;;;;;;;13.43;5.32;;;4.70;97.70;;;;;;5026935;28;20374;-68
2023/01/03 01:36:38;;;;;;;16.45;5.53;;;4.70;97.70;;;;;;5030142;28;20462;-68
2023/01/03 01:39:06;;;;;;;12.15;5.28;;;4.60;97.60;;;;;;5030376;28;20026;-67
2023/01/03 01:44:43;;;;;;;10.63;5.22;;;4.60;97.60;;;;;;5029730;28;20041;-67
2023/01/03 01:47:33;;;;;;;11.10;4.57;;;4.60;97.40;;;;;;5024122;28;20037;-67
2023/01/03 01:50:13;;;;;;;10.32;4.93;;;4.50;97.50;;;;;;5029491;28;20161;-67
2023/01/03 01:52:53;;;;;;;11.02;5.25;;;4.50;97.40;;;;;;5026303;28;20428;-67
2023/01/03 01:55:27;;;;;;;14.25;5.40;;;4.50;97.40;;;;;;5018876;28;20053;-67
2023/01/03 01:57:53;;;;;;;15.70;6.68;;;4.40;97.40;;;;;;5029208;28;20675;-67
2023/01/03 02:00:19;;;;;;;18.25;5.93;;;4.30;97.50;;;;;;5018892;28;20119;-67
2023/01/03 02:02:48;;;;;;;12.30;5.53;;;4.30;97.70;;;;;;5017077;28;20088;-67
2023/01/03 02:05:16;;;;;;;13.00;6.03;;;4.20;97.80;;;;;;5025902;28;20423;-67
2023/01/03 02:07:42;;;;;;;14.07;5.70;;;4.10;97.80;;;;;;5020796;28;20044;-67
2023/01/03 02:10:09;;;;;;;18.50;5.95;;;4.10;98.00;;;;;;5025295;28;20568;-67
2023/01/03 02:13:10;;;;;;;15.35;6.03;;;4.00;98.00;;;;;;5024129;28;20026;-67
2023/01/03 02:15:55;;;;;;;11.48;5.88;;;4.00;98.30;;;;;;5019312;28;20504;-67
2023/01/03 02:18:29;;;;;;;13.55;5.68;;;4.00;98.40;;;;;;5027538;28;20434;-67
2023/01/03 02:21:16;;;;;;;14.57;6.15;;;4.00;98.40;;;;;;5024940;28;20037;-67
2023/01/03 02:24:28;;;;;;;12.15;6.70;;;4.00;98.50;;;;;;5017371;28;20120;-67
2023/01/03 02:27:13;;;;;;;19.27;6.72;;;4.10;98.70;;;;;;5027841;28;20085;-67
2023/01/03 02:30:04;;;;;;;17.15;6.93;;;4.10;98.70;;;;;;5021451;28;20117;-67
2023/01/03 02:32:45;;;;;;;16.65;6.45;;;4.00;98.60;;;;;;5026547;28;20033;-67
2023/01/03 02:35:41;;;;;;;15.50;6.80;;;4.10;98.60;;;;;;5025058;28;20034;-67
2023/01/03 02:38:28;;;;;;;19.55;6.68;;;4.00;98.50;;;;;;5027929;28;20029;-67
2023/01/03 02:41:18;;;;;;;14.77;6.35;;;4.10;98.40;;;;;;5030310;28;20381;-67
2023/01/03 02:43:58;;;;;;;16.60;7.03;;;4.10;98.30;;;;;;5022569;28;20029;-67
2023/01/03 02:46:34;;;;;;;17.13;7.10;;;4.10;98.20;;;;;;5023598;28;20454;-67
2023/01/03 02:49:38;;;;;;;15.75;6.70;;;4.10;98.20;;;;;;5029149;28;20426;-67
2023/01/03 02:52:09;;;;;;;18.98;6.68;;;3.90;98.10;;;;;;5029320;28;20029;-67
2023/01/03 02:54:42;;;;;;;13.55;7.03;;;3.90;98.30;;;;;;5027503;28;20077;-67
2023/01/03 02:57:15;;;;;;;15.10;6.90;;;3.90;98.40;;;;;;5033569;28;20021;-67
2023/01/03 02:59:49;;;;;;;16.15;7.22;;;3.80;98.40;;;;;;5029547;28;20072;-67
2023/01/03 03:02:17;;;;;;;17.50;7.93;;;3.80;98.50;;;;;;5029520;28;20029;-67
2023/01/03 03:04:45;;;;;;;14.65;7.40;;;3.70;98.70;;;;;;5030394;28;20099;-67
2023/01/03 03:07:18;;;;;;;18.88;7.72;;;3.70;98.70;;;;;;5027068;28;20021;-67
2023/01/03 03:15:21;;;;;;;19.13;8.57;;;3.50;98.90;;;;;;5029692;28;20053;-67
2023/01/03 03:17:50;;;;;;;19.73;8.15;;;3.50;99.00;;;;;;5021360;28;20470;-66
2023/01/03 03:26:01;;;;;;;20.70;8.07;;;3.40;99.10;;;;;;5024404;28;20045;-67
2023/01/03 03:28:33;;;;;;;15.52;7.88;;;3.40;99.20;;;;;;5024641;28;20044;-67
2023/01/03 03:31:16;;;;;;;14.27;8.52;;;3.30;99.30;;;;;;5030205;28;20111;-67
2023/01/03 03:33:47;;;;;;;19.15;7.50;;;3.30;99.40;;;;;;5027127;28;20391;-67
2023/01/03 03:36:40;;;;;;;15.02;9.20;;;3.20;99.40;;;;;;5025420;28;20056;-67
2023/01/03 03:44:59;;;;;;;24.92;8.60;;;3.10;99.40;;;;;;5033127;28;20022;-67
2023/01/03 03:45:01;;;;;;;20.70;9.57;;;3.10;99.50;;;;;;5030620;28;20562;-67
2023/01/03 03:47:48;;;;;;;30.30;10.07;;;3.10;99.60;;;;;;5030825;28;20032;-66
2023/01/03 03:50:19;;;;;;;22.10;10.05;;;3.00;99.60;;;;;;5029577;28;20025;-68
2023/01/03 03:52:46;;;;;;;;;;;2.90;99.60;;;;;;5027343;28;20029;-67
2023/01/03 03:55:26;;;;;;;26.48;12.32;;;2.90;99.70;;;;;;5032499;28;20024;-66
2023/01/03 03:58:05;;;;;;;37.75;13.27;;;2.90;99.80;;;;;;5028318;28;20103;-67
2023/01/03 04:00:37;;;;;;;33.38;14.27;;;2.90;99.80;;;;;;5025005;28;20040;-67
2023/01/03 04:03:05;;;;;;;29.08;13.65;;;2.80;99.80;;;;;;5023160;28;20052;-67
2023/01/03 04:05:36;;;;;;;31.27;13.02;;;2.70;99.70;;;;;;5028773;28;20029;-66
2023/01/03 04:08:01;;;;;;;29.42;12.18;;;2.70;99.90;;;;;;5024957;28;22221;-67
2023/01/03 04:10:27;;;;;;;29.45;11.48;;;2.70;99.90;;;;;;5028033;28;20038;-67
2023/01/03 04:12:52;;;;;;;29.92;11.27;;;2.70;99.90;;;;;;5029825;28;20040;-67
2023/01/03 04:15:18;;;;;;;23.77;10.00;;;2.60;99.90;;;;;;5023512;28;20147;-68
2023/01/03 04:17:44;;;;;;;29.98;10.30;;;2.60;99.90;;;;;;5029501;28;20126;-67
2023/01/03 04:20:10;;;;;;;27.83;9.90;;;2.60;99.90;;;;;;5027411;28;20470;-67
2023/01/03 04:22:36;;;;;;;26.65;10.73;;;2.60;99.90;;;;;;5027425;28;20502;-68
2023/01/03 04:25:02;;;;;;;28.23;10.93;;;2.60;99.90;;;;;;5029325;28;20107;-67
2023/01/03 04:27:27;;;;;;;27.15;10.65;;;2.60;99.90;;;;;;5030519;28;20032;-68
2023/01/03 04:29:53;;;;;;;25.38;10.55;;;2.60;99.90;;;;;;5027819;28;20061;-67
2023/01/03 04:32:18;;;;;;;31.08;11.57;;;2.60;99.90;;;;;;5026383;28;20026;-67
2023/01/03 04:34:44;;;;;;;28.73;10.98;;;2.60;99.90;;;;;;5023136;28;20048;-68
2023/01/03 04:37:09;;;;;;;30.25;11.65;;;2.60;99.90;;;;;;5016607;28;20390;-67
2023/01/03 04:39:35;;;;;;;27.38;11.38;;;2.70;99.90;;;;;;5024430;28;20065;-67
2023/01/03 04:42:00;;;;;;;24.35;11.02;;;2.70;99.90;;;;;;5024665;28;20030;-67
2023/01/03 04:44:26;;;;;;;24.98;11.27;;;2.80;99.90;;;;;;5023462;28;20025;-67
2023/01/03 04:46:52;;;;;;;32.28;11.85;;;2.80;99.90;;;;;;5024703;28;20041;-66
2023/01/03 04:49:18;;;;;;;25.90;11.20;;;2.90;99.90;;;;;;5026180;28;20037;-66
2023/01/03 04:51:43;;;;;;;37.60;11.63;;;2.90;99.90;;;;;;5018106;28;20044;-67
2023/01/03 04:54:09;;;;;;;30.63;10.57;;;3.00;99.90;;;;;;5018318;28;20497;-68
2023/01/03 04:56:36;;;;;;;35.15;12.68;;;3.10;99.90;;;;;;5030573;28;20034;-67
2023/01/03 04:59:02;;;;;;;30.48;12.20;;;3.10;99.90;;;;;;5023728;28;20036;-67
2023/01/03 05:01:28;;;;;;;34.50;11.40;;;3.10;99.90;;;;;;5020663;28;20100;-67
2023/01/03 05:03:58;;;;;;;28.95;11.07;;;3.10;99.90;;;;;;5022580;28;20021;-67
2023/01/03 05:06:24;;;;;;;28.50;11.98;;;3.20;99.90;;;;;;5026133;28;20498;-67
2023/01/03 05:08:50;;;;;;;38.42;13.10;;;3.30;99.90;;;;;;5019217;28;20061;-67
2023/01/03 05:11:15;;;;;;;28.05;11.90;;;3.30;99.90;;;;;;5026410;28;20037;-67
2023/01/03 05:13:41;;;;;;;31.15;12.60;;;3.30;99.90;;;;;;5028509;28;20476;-67
2023/01/03 05:16:10;;;;;;;34.90;13.63;;;3.30;99.90;;;;;;5025986;28;20030;-67
2023/01/03 05:18:36;;;;;;;41.50;14.88;;;3.30;99.90;;;;;;5027638;28;20036;-67
2023/01/03 05:26:41;;;;;;;28.08;12.02;;;3.10;99.70;;;;;;5030278;28;20394;-67
2023/01/03 05:29:08;;;;;;;39.15;12.05;;;3.10;99.60;;;;;;5027461;28;20163;-69
2023/01/03 05:31:34;;;;;;;25.92;11.70;;;3.10;99.60;;;;;;5027340;28;20025;-69
2023/01/03 05:33:59;;;;;;;31.95;11.68;;;3.00;99.50;;;;;;5041551;28;20501;-69
2023/01/03 05:36:25;;;;;;;35.47;11.63;;;3.00;99.40;;;;;;5029886;28;20410;-69
2023/01/03 05:38:50;;;;;;;31.33;10.48;;;2.90;99.40;;;;;;5029031;28;20048;-69
2023/01/03 05:41:58;;;;;;;34.35;10.80;;;2.80;99.40;;;;;;5030128;28;20060;-69
2023/01/03 05:44:04;;;;;;;23.58;9.57;;;2.80;99.30;;;;;;5025383;28;20029;-69
2023/01/03 05:46:30;;;;;;;30.70;11.23;;;2.70;99.30;;;;;;5029220;28;20055;-69
2023/01/03 05:48:56;;;;;;;29.00;10.15;;;2.60;99.20;;;;;;5027395;28;20037;-69
2023/01/03 05:51:21;;;;;;;24.95;9.43;;;2.60;99.30;;;;;;5026397;28;20040;-69
2023/01/03 05:53:47;;;;;;;26.23;9.38;;;2.60;99.20;;;;;;5027475;28;20044;-69
2023/01/03 05:56:12;;;;;;;28.45;9.88;;;2.50;99.20;;;;;;5017109;28;20124;-69
2023/01/03 05:58:38;;;;;;;29.50;9.50;;;2.40;99.10;;;;;;5022992;28;20389;-69
2023/01/03 06:01:10;;;;;;;26.02;9.85;;;2.30;98.90;;;;;;5026860;28;20038;-69
2023/01/03 06:03:36;;;;;;;26.75;9.65;;;2.20;99.10;;;;;;5028667;28;20029;-69
2023/01/03 06:06:03;;;;;;;26.65;9.73;;;2.20;99.10;;;;;;5028680;28;20044;-69
2023/01/03 06:08:29;;;;;;;25.10;9.40;;;2.10;99.10;;;;;;5023443;28;20048;-69
2023/01/03 06:10:55;;;;;;;28.15;9.05;;;2.10;99.20;;;;;;5029229;28;20025;-69
2023/01/03 06:13:22;;;;;;;28.20;10.13;;;2.10;99.20;;;;;;5022464;28;20105;-69
2023/01/03 06:17:53;;;;;;;24.25;9.68;;;2.10;99.20;;;;;;5032216;28;20112;-69
2023/01/03 06:18:34;;;;;;;23.20;9.38;;;2.00;99.20;;;;;;5023951;28;20042;-69
2023/01/03 06:21:02;;;;;;;25.50;9.10;;;1.90;99.10;;;;;;5025573;28;20417;-74
2023/01/03 06:23:28;;;;;;;29.30;8.82;;;1.90;99.20;;;;;;5031972;28;20048;-71
2023/01/03 06:25:53;;;;;;;26.80;9.43;;;1.90;99.30;;;;;;5031580;28;20030;-72
2023/01/03 06:28:19;;;;;;;32.08;9.68;;;1.90;99.30;;;;;;5022774;28;20045;-72
2023/01/03 06:30:44;;;;;;;29.35;9.95;;;1.70;99.10;;;;;;5021228;28;20112;-72
2023/01/03 06:33:11;;;;;;;27.30;8.43;;;1.80;99.30;;;;;;5024644;28;20444;-71
2023/01/03 06:35:37;;;;;;;29.15;8.90;;;1.70;99.30;;;;;;5026185;28;20649;-69
2023/01/03 06:38:06;;;;;;;26.08;7.72;;;1.70;99.50;;;;;;5031893;28;20041;-68
2023/01/03 06:40:31;;;;;;;26.85;9.68;;;1.70;99.40;;;;;;5032605;28;20033;-68
2023/01/03 06:42:57;;;;;;;26.13;9.90;;;1.80;99.50;;;;;;5031059;28;20100;-69
2023/01/03 06:53:40;;;;;;;32.67;10.18;;;1.80;99.50;;;;;;5021531;28;20044;-69
2023/01/03 06:56:06;;;;;;;30.33;11.07;;;1.80;99.60;;;;;;5033017;28;20029;-68
2023/01/03 06:58:32;;;;;;;27.63;10.15;;;1.80;99.60;;;;;;5029055;28;20033;-69
2023/01/03 07:01:03;;;;;;;27.73;11.30;;;1.80;99.60;;;;;;5023439;28;20124;-69
2023/01/03 07:03:30;;;;;;;24.38;10.60;;;1.80;99.60;;;;;;5028103;28;20048;-69
2023/01/03 07:05:55;;;;;;;33.55;11.35;;;1.80;99.60;;;;;;5028375;28;20038;-69
2023/01/03 07:08:21;;;;;;;28.65;9.73;;;1.80;99.70;;;;;;5024694;28;20022;-69
2023/01/03 07:10:46;;;;;;;30.98;10.02;;;1.80;99.70;;;;;;5028223;28;20033;-69
2023/01/03 07:15:56;;;;;;;32.58;11.82;;;1.80;99.70;;;;;;5023571;28;20509;-69
2023/01/03 07:18:22;;;;;;;34.08;10.43;;;1.70;99.70;;;;;;5028915;28;20037;-69
2023/01/03 07:20:47;;;;;;;37.72;11.63;;;1.70;99.80;;;;;;5025301;28;20056;-69
2023/01/03 07:23:13;;;;;;;37.08;10.82;;;1.70;99.70;;;;;;5024386;28;20060;-69
2023/01/03 07:25:40;;;;;;;33.90;11.00;;;1.60;99.70;;;;;;5028770;28;20030;-69
2023/01/03 07:28:10;;;;;;;32.25;11.93;;;1.60;99.80;;;;;;5031515;28;20473;-69
2023/01/03 07:30:41;;;;;;;33.40;11.30;;;1.60;99.80;;;;;;5029385;28;20548;-69
2023/01/03 07:33:08;;;;;;;34.03;11.27;;;1.60;99.90;;;;;;5031438;28;20030;-69
2023/01/03 07:35:35;;;;;;;27.58;10.88;;;1.60;99.80;;;;;;5024161;28;20062;-69
2023/01/03 07:38:01;;;;;;;29.33;10.73;;;1.70;99.90;;;;;;5029238;28;20376;-69
2023/01/03 07:40:28;;;;;;;37.00;11.30;;;1.80;99.90;;;;;;5023862;28;20061;-69
2023/01/03 07:45:42;;;;;;;38.35;12.23;;;1.80;99.90;;;;;;5026483;28;20445;-69
2023/01/03 07:48:08;;;;;;;44.97;12.57;;;1.90;99.90;;;;;;5031241;28;20033;-69
2023/01/03 07:50:35;;;;;;;43.92;13.68;;;1.80;99.90;;;;;;5028968;28;20040;-69
2023/01/03 07:53:00;;;;;;;38.33;12.45;;;1.80;99.90;;;;;;5021188;28;20060;-69
2023/01/03 07:55:27;;;;;;;39.72;13.00;;;1.90;99.90;;;;;;5028977;28;20030;-69
2023/01/03 07:57:53;;;;;;;44.00;14.07;;;1.80;99.90;;;;;;5029948;28;20041;-69
2023/01/03 08:00:19;;;;;;;52.83;13.27;;;1.70;99.90;;;;;;5023872;28;20112;-69
2023/01/03 08:02:44;;;;;;;54.38;14.30;;;1.70;99.90;;;;;;5026237;28;20152;-69
2023/01/03 08:05:10;;;;;;;42.72;13.60;;;1.70;99.90;;;;;;5027357;28;20470;-69
2023/01/03 08:07:35;;;;;;;44.13;13.68;;;1.80;99.90;;;;;;5030662;28;20029;-69
2023/01/03 08:15:29;;;;;;;41.75;13.00;;;1.80;99.90;;;;;;5023479;28;20532;-69
2023/01/03 08:17:54;;;;;;;49.78;14.38;;;1.90;99.90;;;;;;5030176;28;20163;-69
2023/01/03 08:20:19;;;;;;;52.60;15.90;;;2.10;99.90;;;;;;5028230;28;20025;-69
2023/01/03 08:22:45;;;;;;;54.42;14.65;;;2.10;99.90;;;;;;5029731;28;20053;-69
2023/01/03 08:25:10;;;;;;;57.35;14.45;;;2.10;99.90;;;;;;5028290;28;20461;-69
2023/01/03 08:27:36;;;;;;;50.20;14.90;;;2.20;99.90;;;;;;5018027;28;20037;-69
2023/01/03 08:30:02;;;;;;;49.38;14.13;;;2.20;99.90;;;;;;5021678;28;20040;-69
2023/01/03 08:32:28;;;;;;;62.47;15.75;;;2.30;99.90;;;;;;5027984;28;20037;-69
2023/01/03 08:34:54;;;;;;;55.80;14.98;;;2.30;99.90;;;;;;5026925;28;20065;-69
2023/01/03 08:37:20;;;;;;;50.10;15.55;;;2.30;99.90;;;;;;5025239;28;20134;-69
2023/01/03 08:39:53;;;;;;;55.17;15.27;;;2.30;99.90;;;;;;5029735;28;20040;-69
2023/01/03 08:42:22;;;;;;;42.95;13.88;;;2.40;99.90;;;;;;5023079;28;20489;-69
2023/01/03 08:44:49;;;;;;;56.65;16.17;;;2.40;99.90;;;;;;5029830;28;20033;-69
2023/01/03 08:47:15;;;;;;;54.88;15.18;;;2.50;99.90;;;;;;5025137;28;20378;-69
2023/01/03 08:49:41;;;;;;;59.15;15.85;;;2.40;99.90;;;;;;5024601;28;20029;-69
2023/01/03 08:52:07;;;;;;;56.40;14.43;;;2.50;99.90;;;;;;5022281;28;20363;-69
2023/01/03 08:54:33;;;;;;;50.22;15.63;;;2.50;99.90;;;;;;5019679;28;20477;-69
2023/01/03 08:56:58;;;;;;;49.30;14.95;;;2.40;99.90;;;;;;5027755;28;20112;-69
2023/01/03 08:59:23;;;;;;;52.65;15.45;;;2.40;99.90;;;;;;5028354;28;20184;-69
2023/01/03 09:01:49;;;;;;;48.95;14.68;;;2.50;99.90;;;;;;5022984;28;20033;-69
2023/01/03 09:04:14;;;;;;;63.72;16.15;;;2.50;99.90;;;;;;5030087;28;20393;-69
2023/01/03 09:06:40;;;;;;;56.33;16.50;;;2.60;99.90;;;;;;5024629;28;20060;-69
2023/01/03 09:09:07;;;;;;;49.13;15.88;;;2.70;99.90;;;;;;5023819;28;20038;-69
2023/01/03 09:11:33;;;;;;;59.45;15.68;;;2.80;99.90;;;;;;5025841;28;20034;-69
2023/01/03 09:13:59;;;;;;;52.28;16.70;;;2.90;99.90;;;;;;5021892;28;20057;-69
2023/01/03 09:16:25;;;;;;;50.88;16.90;;;3.00;99.90;;;;;;5025606;28;20030;-69
2023/01/03 09:18:51;;;;;;;61.42;16.90;;;3.00;99.90;;;;;;5028802;28;20048;-69
2023/01/03 09:21:16;;;;;;;65.30;16.85;;;3.10;99.90;;;;;;5025446;28;20049;-69
2023/01/03 09:23:42;;;;;;;52.05;16.23;;;3.10;99.90;;;;;;5028167;28;20080;-70
2023/01/03 09:26:07;;;;;;;53.42;16.73;;;3.20;99.90;;;;;;5025923;28;20350;-69
2023/01/03 09:28:33;;;;;;;57.35;17.10;;;3.20;99.90;;;;;;5025555;28;20035;-69
2023/01/03 09:30:59;;;;;;;60.38;17.75;;;3.30;99.80;;;;;;5024360;28;20060;-69
2023/01/03 09:33:24;;;;;;;50.38;16.90;;;3.30;99.80;;;;;;5020199;28;20053;-69
2023/01/03 09:35:54;;;;;;;65.15;17.88;;;3.40;99.70;;;;;;5017573;28;20030;-69
2023/01/03 09:38:20;;;;;;;63.45;18.25;;;3.40;99.50;;;;;;5018750;28;20079;-69
2023/01/03 09:40:46;;;;;;;53.45;17.27;;;3.50;99.50;;;;;;5021331;28;20092;-69
2023/01/03 09:43:18;;;;;;;57.17;17.85;;;3.50;99.40;;;;;;5019639;28;20026;-69
2023/01/03 09:45:57;;;;;;;57.08;17.80;;;3.50;99.30;;;;;;5020514;28;20025;-69
2023/01/03 09:48:40;;;;;;;65.15;17.30;;;3.60;99.20;;;;;;5021147;28;20061;-69
2023/01/03 10:03:42;;;;;;;61.35;17.48;;;3.70;99.20;;;;;;5020212;28;20116;-68
2023/01/03 10:05:35;;;;;;;67.88;26.90;;;4.70;99.20;;;;;;5031023;28;20091;-69
2023/01/03 10:08:23;;;;;;;64.30;19.55;;;4.70;98.80;;;;;;5026351;28;20188;-70
2023/01/03 10:11:11;;;;;;;58.53;17.88;;;4.80;98.50;;;;;;5032381;28;20040;-70
2023/01/03 10:14:04;;;;;;;49.70;17.13;;;4.90;97.80;;;;;;5028451;28;20049;-70
2023/01/03 10:16:46;;;;;;;47.70;17.85;;;5.00;97.20;;;;;;5026579;28;20041;-70
2023/01/03 10:19:33;;;;;;;41.72;16.60;;;5.20;96.70;;;;;;5022322;28;20037;-70
2023/01/03 10:22:11;;;;;;;35.40;14.77;;;5.10;95.90;;;;;;5029180;28;20049;-70
2023/01/03 10:24:46;;;;;;;32.42;14.82;;;5.30;95.80;;;;;;5028607;28;20140;-70
2023/01/03 10:27:20;;;;;;;42.65;15.50;;;5.50;95.70;;;;;;5025993;28;20124;-70
2023/01/03 10:29:48;;;;;;;29.30;13.48;;;5.40;95.30;;;;;;5030157;28;20034;-70
2023/01/03 10:32:31;;;;;;;26.33;14.02;;;5.40;95.30;;;;;;5024181;28;20088;-70
2023/01/03 10:35:15;;;;;;;29.73;13.02;;;5.60;95.50;;;;;;5023482;28;20065;-70
2023/01/03 10:37:40;;;;;;;28.80;13.10;;;5.60;94.90;;;;;;5028888;28;20386;-70
2023/01/03 10:40:07;;;;;;;27.42;12.57;;;5.60;94.40;;;;;;5027516;28;20025;-70
2023/01/03 10:42:34;;;;;;;27.40;12.52;;;5.70;94.20;;;;;;5032463;28;20069;-70
2023/01/03 10:45:10;;;;;;;20.70;11.07;;;5.70;94.00;;;;;;5033179;28;20029;-70
2023/01/03 10:47:35;;;;;;;22.15;11.23;;;5.80;93.80;;;;;;5027907;28;20120;-70
2023/01/03 10:50:04;;;;;;;21.40;11.02;;;5.90;93.50;;;;;;5031908;28;20525;-70
2023/01/03 10:52:38;;;;;;;22.42;11.20;;;5.90;93.10;;;;;;5028449;28;20040;-70
2023/01/03 10:55:13;;;;;;;18.95;10.27;;;6.00;93.30;;;;;;5030011;28;20041;-69
2023/01/03 10:57:47;;;;;;;18.80;9.10;;;6.10;93.20;;;;;;5032340;28;20032;-70
2023/01/03 11:00:25;;;;;;;17.15;8.98;;;6.10;93.00;;;;;;5028633;28;20034;-69
2023/01/03 11:02:52;;;;;;;22.10;9.73;;;6.00;92.30;;;;;;5028414;28;20029;-70
2023/01/03 11:05:21;;;;;;;18.25;9.38;;;6.10;92.50;;;;;;5023963;28;20436;-70
2023/01/03 11:07:54;;;;;;;22.38;10.93;;;6.00;92.30;;;;;;5030559;28;20065;-70
2023/01/03 11:10:20;;;;;;;23.30;11.75;;;6.10;92.10;;;;;;5029348;28;20034;-69
2023/01/03 11:12:46;;;;;;;19.48;10.02;;;6.00;91.80;;;;;;5029913;28;20543;-70
2023/01/03 11:15:14;;;;;;;21.75;11.05;;;6.00;91.70;;;;;;5031031;28;20073;-70
2023/01/03 11:18:04;;;;;;;14.85;9.45;;;6.10;91.60;;;;;;5030733;28;20037;-70
2023/01/03 11:20:51;;;;;;;20.27;9.18;;;6.10;91.50;;;;;;5031012;28;20466;-70
2023/01/03 11:23:35;;;;;;;15.55;9.15;;;6.00;91.60;;;;;;5027446;28;20490;-70
2023/01/03 11:26:18;;;;;;;16.05;9.45;;;6.10;91.70;;;;;;5025534;28;20394;-70
2023/01/03 11:28:55;;;;;;;16.75;8.15;;;5.80;91.50;;;;;;5030865;28;20041;-70
2023/01/03 11:31:46;;;;;;;16.58;8.13;;;5.90;91.40;;;;;;5021279;28;20136;-70
2023/01/03 11:34:33;;;;;;;17.70;8.20;;;6.00;91.60;;;;;;5028959;28;20037;-70
2023/01/03 11:37:11;;;;;;;18.25;8.20;;;6.20;90.40;;;;;;5018724;28;20034;-70
2023/01/03 11:40:08;;;;;;;16.92;8.07;;;6.30;90.40;;;;;;5030654;28;20025;-70
2023/01/03 11:42:47;;;;;;;15.98;7.85;;;6.40;89.60;;;;;;5004961;28;20482;-70
2023/01/03 11:45:41;;;;;;;17.05;8.70;;;6.60;89.60;;;;;;5028510;28;20025;-70
2023/01/03 11:48:20;;;;;;;26.17;14.43;;;6.60;89.70;;;;;;5030327;28;20025;-70
2023/01/03 11:51:01;;;;;;;19.55;10.70;;;6.70;89.10;;;;;;5030060;28;20060;-70
2023/01/03 11:53:37;;;;;;;23.00;16.88;;;6.90;89.40;;;;;;5026612;28;20429;-70
2023/01/03 11:56:18;;;;;;;17.00;9.05;;;6.90;87.80;;;;;;5026122;28;20025;-70
2023/01/03 11:59:31;;;;;;;12.25;7.85;;;7.00;88.20;;;;;;5020788;28;20033;-70
2023/01/03 12:02:33;;;;;;;14.88;8.00;;;7.10;87.70;;;;;;5023107;28;20073;-70
2023/01/03 12:05:35;;;;;;;18.05;8.48;;;7.00;86.70;;;;;;5022291;28;20037;-70
2023/01/03 12:08:08;;;;;;;16.85;8.05;;;7.00;86.80;;;;;;5023110;28;20033;-70
2023/01/03 12:10:40;;;;;;;15.80;7.95;;;7.00;86.10;;;;;;5025397;28;20053;-70
2023/01/03 12:13:30;;;;;;;15.73;8.15;;;7.00;85.70;;;;;;5020288;28;20029;-70
2023/01/03 12:16:04;;;;;;;16.30;8.73;;;7.00;86.30;;;;;;5028968;28;20026;-70
2023/01/03 12:18:49;;;;;;;13.05;7.63;;;7.00;87.30;;;;;;5025857;28;20422;-70
2023/01/03 12:21:33;;;;;;;13.35;7.35;;;7.10;85.50;;;;;;5028138;28;20029;-70
2023/01/03 12:24:18;;;;;;;12.07;7.43;;;7.10;84.90;;;;;;5021173;28;20030;-70
2023/01/03 12:26:52;;;;;;;12.48;7.50;;;7.10;85.30;;;;;;5026610;28;20041;-70
2023/01/03 12:29:27;;;;;;;15.60;8.00;;;7.10;85.00;;;;;;5022253;28;20343;-70
2023/01/03 12:31:59;;;;;;;13.43;6.90;;;7.30;86.00;;;;;;5020026;28;20316;-70
2023/01/03 12:34:51;;;;;;;13.45;7.72;;;7.50;84.80;;;;;;5024223;28;20130;-70
2023/01/03 12:37:23;;;;;;;14.65;7.90;;;7.30;83.60;;;;;;5021314;28;20026;-70
2023/01/03 12:39:58;;;;;;;12.48;7.97;;;7.40;85.10;;;;;;5014864;28;20026;-71
2023/01/03 12:42:42;;;;;;;12.48;7.03;;;7.40;84.90;;;;;;5021474;28;20061;-71
2023/01/03 12:45:09;;;;;;;23.45;14.57;;;7.30;83.30;;;;;;5024047;28;20029;-71
2023/01/03 12:47:41;;;;;;;13.15;8.73;;;7.20;83.60;;;;;;5019905;28;20047;-71
2023/01/03 12:50:31;;;;;;;14.32;9.82;;;7.00;84.20;;;;;;5028848;28;20029;-70
2023/01/03 12:53:14;;;;;;;17.93;9.80;;;7.10;85.90;;;;;;5030405;28;20042;-70
2023/01/03 12:56:38;;;;;;;17.88;9.55;;;6.90;86.80;;;;;;5028127;28;20291;-70
2023/01/03 12:59:34;;;;;;;16.52;10.23;;;6.90;87.00;;;;;;5005169;28;20048;-70
2023/01/03 13:02:14;;;;;;;15.40;9.63;;;6.80;86.30;;;;;;5001007;28;20069;-70
2023/01/03 13:04:42;;;;;;;16.70;10.07;;;6.60;86.10;;;;;;5021664;28;20048;-70
2023/01/03 13:07:12;;;;;;;16.58;9.82;;;6.50;85.70;;;;;;5024731;28;20033;-70
2023/01/03 13:09:42;;;;;;;19.30;9.43;;;6.40;87.00;;;;;;5022554;28;20488;-70
2023/01/03 13:12:14;;;;;;;16.00;9.15;;;6.30;86.90;;;;;;5028156;28;20037;-70
2023/01/03 13:14:53;;;;;;;15.20;9.25;;;6.10;87.20;;;;;;5025636;28;20049;-70
2023/01/03 13:17:24;;;;;;;15.55;9.25;;;6.10;87.40;;;;;;5025816;28;20060;-70
2023/01/03 13:19:54;;;;;;;15.80;9.30;;;6.10;87.00;;;;;;5025822;28;20486;-70
2023/01/03 13:22:52;;;;;;;16.25;9.50;;;6.10;87.10;;;;;;5029592;28;20075;-70
2023/01/03 13:25:38;;;;;;;15.57;9.88;;;6.00;87.30;;;;;;5027348;28;20033;-70
2023/01/03 13:28:30;;;;;;;19.90;10.00;;;5.90;88.00;;;;;;5027481;28;20051;-70
2023/01/03 13:31:13;;;;;;;19.70;10.50;;;5.80;88.70;;;;;;5023935;28;20040;-70
2023/01/03 13:33:55;;;;;;;20.67;11.00;;;5.80;88.80;;;;;;5026044;28;20021;-74
2023/01/03 13:36:22;;;;;;;21.95;12.63;;;5.80;88.60;;;;;;5022193;28;20400;-69
2023/01/03 13:38:47;;;;;;;20.17;11.63;;;5.80;88.50;;;;;;5029447;28;20045;-69
2023/01/03 13:41:37;;;;;;;20.88;12.20;;;5.80;88.90;;;;;;5019164;28;20370;-70
2023/01/03 13:44:19;;;;;;;20.38;11.65;;;5.70;89.30;;;;;;5027360;28;20042;-70
2023/01/03 13:46:45;;;;;;;18.67;11.65;;;5.70;89.30;;;;;;5027724;28;20041;-70
2023/01/03 13:49:20;;;;;;;21.02;11.75;;;5.70;89.90;;;;;;5025237;28;20119;-68
2023/01/03 13:51:49;;;;;;;45.35;28.75;;;5.60;90.50;;;;;;5025082;28;20030;-70
2023/01/03 13:54:14;;;;;;;28.77;19.50;;;5.60;90.80;;;;;;5025935;28;20045;-69
2023/01/03 13:56:43;;;;;;;26.17;17.65;;;5.60;90.90;;;;;;5030817;28;20033;-69
2023/01/03 13:59:24;;;;;;;19.73;13.60;;;5.60;91.10;;;;;;5023191;28;20037;-69
2023/01/03 14:01:54;;;;;;;25.35;15.13;;;5.70;91.60;;;;;;5022381;28;20504;-69